Oakdale, Iowa
Current Conditions -  °F | °C
As of 10:52 PM on Friday 26 Dec 2014 (Local Time) from KIOW Reporting Station
Light Rain Light Rain  
Wind Chill: 41°   Ceiling: 2400
Heat Index: 41°   Visibility: 9mi
Dew Point: 38°   Wind: 3mph
Humidity: 89%   Direction: 40°NE
Pressure: 29.97"   Gusts: NA
Location:  41.71°N, 91.6°W
Report Text: KIOW 270452Z AUTO 04003KT 9SM -RA BKN024 OVC033 05/03 A2997 RMK AO2 SLP153 P0002 T00500033
Loading
Personal Weather Stations






























Interactive Weather Map New forecast layout! Learn more

10-Day Weather Forecast

Advertisements
Track Severe Weather on mobile